sensor_id;sensor_type;location;lat;lon;timestamp;P1;durP1;ratioP1;P2;durP2;ratioP2
31638;SDS011;18248;51.522;7.020;2022-11-20T00:02:34;58.05;;;26.33;;
31638;SDS011;18248;51.522;7.020;2022-11-20T00:05:33;61.55;;;29.58;;
31638;SDS011;18248;51.522;7.020;2022-11-20T00:08:31;52.10;;;23.05;;
31638;SDS011;18248;51.522;7.020;2022-11-20T00:11:32;72.88;;;30.77;;
31638;SDS011;18248;51.522;7.020;2022-11-20T00:14:30;66.78;;;29.25;;
31638;SDS011;18248;51.522;7.020;2022-11-20T00:17:29;57.63;;;26.50;;
31638;SDS011;18248;51.522;7.020;2022-11-20T00:20:27;51.78;;;25.38;;
31638;SDS011;18248;51.522;7.020;2022-11-20T00:23:26;53.17;;;22.67;;
31638;SDS011;18248;51.522;7.020;2022-11-20T00:26:25;43.00;;;20.02;;
31638;SDS011;18248;51.522;7.020;2022-11-20T00:29:25;29.90;;;17.55;;
31638;SDS011;18248;51.522;7.020;2022-11-20T00:32:23;41.47;;;21.30;;
31638;SDS011;18248;51.522;7.020;2022-11-20T00:35:23;40.97;;;20.67;;
31638;SDS011;18248;51.522;7.020;2022-11-20T00:38:23;41.60;;;21.23;;
31638;SDS011;18248;51.522;7.020;2022-11-20T00:41:22;35.95;;;17.85;;
31638;SDS011;18248;51.522;7.020;2022-11-20T00:44:21;35.67;;;18.48;;
31638;SDS011;18248;51.522;7.020;2022-11-20T00:47:20;39.78;;;20.73;;
31638;SDS011;18248;51.522;7.020;2022-11-20T00:50:18;36.50;;;18.75;;
31638;SDS011;18248;51.522;7.020;2022-11-20T00:53:19;32.58;;;17.10;;
31638;SDS011;18248;51.522;7.020;2022-11-20T00:56:19;31.90;;;17.23;;
31638;SDS011;18248;51.522;7.020;2022-11-20T00:59:18;28.00;;;16.30;;
31638;SDS011;18248;51.522;7.020;2022-11-20T01:02:16;31.90;;;16.13;;
31638;SDS011;18248;51.522;7.020;2022-11-20T01:05:15;28.85;;;15.10;;
31638;SDS011;18248;51.522;7.020;2022-11-20T01:08:13;32.15;;;17.17;;
31638;SDS011;18248;51.522;7.020;2022-11-20T01:11:14;31.73;;;16.75;;
31638;SDS011;18248;51.522;7.020;2022-11-20T01:14:16;28.95;;;16.00;;
31638;SDS011;18248;51.522;7.020;2022-11-20T01:17:16;38.40;;;19.48;;
31638;SDS011;18248;51.522;7.020;2022-11-20T01:20:15;32.17;;;16.52;;
31638;SDS011;18248;51.522;7.020;2022-11-20T01:23:13;29.45;;;15.70;;
31638;SDS011;18248;51.522;7.020;2022-11-20T01:26:13;39.88;;;21.55;;
31638;SDS011;18248;51.522;7.020;2022-11-20T01:29:14;35.85;;;19.70;;
31638;SDS011;18248;51.522;7.020;2022-11-20T01:32:18;36.60;;;19.20;;
31638;SDS011;18248;51.522;7.020;2022-11-20T01:35:17;35.15;;;18.35;;
31638;SDS011;18248;51.522;7.020;2022-11-20T01:38:16;34.78;;;18.35;;
31638;SDS011;18248;51.522;7.020;2022-11-20T01:41:15;33.90;;;16.92;;
31638;SDS011;18248;51.522;7.020;2022-11-20T01:47:52;48.45;;;20.42;;
31638;SDS011;18248;51.522;7.020;2022-11-20T01:50:51;43.45;;;20.88;;
31638;SDS011;18248;51.522;7.020;2022-11-20T01:53:52;42.03;;;20.42;;
31638;SDS011;18248;51.522;7.020;2022-11-20T01:56:54;35.83;;;17.88;;
31638;SDS011;18248;51.522;7.020;2022-11-20T01:59:57;36.45;;;19.52;;
31638;SDS011;18248;51.522;7.020;2022-11-20T02:03:00;48.42;;;24.50;;
31638;SDS011;18248;51.522;7.020;2022-11-20T02:09:09;37.08;;;18.52;;
31638;SDS011;18248;51.522;7.020;2022-11-20T02:12:10;33.78;;;17.40;;
31638;SDS011;18248;51.522;7.020;2022-11-20T02:15:29;37.92;;;18.23;;
31638;SDS011;18248;51.522;7.020;2022-11-20T02:18:29;38.42;;;19.05;;
31638;SDS011;18248;51.522;7.020;2022-11-20T02:21:48;39.38;;;20.60;;
31638;SDS011;18248;51.522;7.020;2022-11-20T02:24:56;40.00;;;21.55;;
31638;SDS011;18248;51.522;7.020;2022-11-20T02:27:57;36.67;;;19.00;;
31638;SDS011;18248;51.522;7.020;2022-11-20T02:30:56;35.97;;;18.02;;
31638;SDS011;18248;51.522;7.020;2022-11-20T02:33:55;38.35;;;18.70;;
31638;SDS011;18248;51.522;7.020;2022-11-20T02:36:55;50.72;;;24.75;;
31638;SDS011;18248;51.522;7.020;2022-11-20T02:39:55;48.53;;;22.88;;
31638;SDS011;18248;51.522;7.020;2022-11-20T02:42:54;37.80;;;18.45;;
31638;SDS011;18248;51.522;7.020;2022-11-20T02:45:53;39.15;;;19.58;;
31638;SDS011;18248;51.522;7.020;2022-11-20T02:48:52;40.72;;;20.27;;
31638;SDS011;18248;51.522;7.020;2022-11-20T02:51:50;43.00;;;21.30;;
31638;SDS011;18248;51.522;7.020;2022-11-20T02:54:50;35.78;;;19.05;;
31638;SDS011;18248;51.522;7.020;2022-11-20T02:57:49;39.80;;;19.80;;
31638;SDS011;18248;51.522;7.020;2022-11-20T03:00:48;37.60;;;19.55;;
31638;SDS011;18248;51.522;7.020;2022-11-20T03:03:46;46.92;;;21.10;;
31638;SDS011;18248;51.522;7.020;2022-11-20T03:06:46;51.50;;;26.38;;
31638;SDS011;18248;51.522;7.020;2022-11-20T03:09:46;34.35;;;19.38;;
31638;SDS011;18248;51.522;7.020;2022-11-20T03:12:44;39.92;;;21.63;;
31638;SDS011;18248;51.522;7.020;2022-11-20T03:15:43;44.50;;;23.80;;
31638;SDS011;18248;51.522;7.020;2022-11-20T03:18:42;42.67;;;21.63;;
31638;SDS011;18248;51.522;7.020;2022-11-20T03:21:41;44.00;;;21.65;;
31638;SDS011;18248;51.522;7.020;2022-11-20T03:24:39;36.95;;;19.58;;
31638;SDS011;18248;51.522;7.020;2022-11-20T03:27:38;43.15;;;21.65;;
31638;SDS011;18248;51.522;7.020;2022-11-20T03:30:37;43.90;;;21.77;;
31638;SDS011;18248;51.522;7.020;2022-11-20T03:33:37;39.80;;;19.05;;
31638;SDS011;18248;51.522;7.020;2022-11-20T03:36:40;39.42;;;20.25;;
31638;SDS011;18248;51.522;7.020;2022-11-20T03:39:40;36.03;;;18.17;;
31638;SDS011;18248;51.522;7.020;2022-11-20T03:42:38;30.58;;;17.00;;
31638;SDS011;18248;51.522;7.020;2022-11-20T03:45:43;33.47;;;17.65;;
31638;SDS011;18248;51.522;7.020;2022-11-20T03:48:41;37.00;;;19.45;;
31638;SDS011;18248;51.522;7.020;2022-11-20T03:51:40;44.92;;;23.35;;
31638;SDS011;18248;51.522;7.020;2022-11-20T03:54:38;33.28;;;17.35;;
31638;SDS011;18248;51.522;7.020;2022-11-20T03:57:37;41.35;;;23.73;;
31638;SDS011;18248;51.522;7.020;2022-11-20T04:00:35;37.75;;;17.73;;
31638;SDS011;18248;51.522;7.020;2022-11-20T04:03:34;35.92;;;19.85;;
31638;SDS011;18248;51.522;7.020;2022-11-20T04:06:35;41.50;;;19.40;;
31638;SDS011;18248;51.522;7.020;2022-11-20T04:09:34;32.22;;;17.90;;
31638;SDS011;18248;51.522;7.020;2022-11-20T04:12:33;38.22;;;20.48;;
31638;SDS011;18248;51.522;7.020;2022-11-20T04:15:31;39.63;;;19.63;;
31638;SDS011;18248;51.522;7.020;2022-11-20T04:18:30;34.08;;;18.45;;
31638;SDS011;18248;51.522;7.020;2022-11-20T04:21:29;32.20;;;18.15;;
31638;SDS011;18248;51.522;7.020;2022-11-20T04:24:28;34.30;;;19.35;;
31638;SDS011;18248;51.522;7.020;2022-11-20T04:27:26;39.72;;;21.65;;
31638;SDS011;18248;51.522;7.020;2022-11-20T04:30:25;34.78;;;19.25;;
31638;SDS011;18248;51.522;7.020;2022-11-20T04:33:23;35.13;;;18.33;;
31638;SDS011;18248;51.522;7.020;2022-11-20T04:36:23;35.17;;;19.13;;
31638;SDS011;18248;51.522;7.020;2022-11-20T04:39:23;40.65;;;20.10;;
31638;SDS011;18248;51.522;7.020;2022-11-20T04:42:21;38.70;;;20.23;;
31638;SDS011;18248;51.522;7.020;2022-11-20T04:45:26;35.85;;;18.65;;
31638;SDS011;18248;51.522;7.020;2022-11-20T04:48:25;44.70;;;22.67;;
31638;SDS011;18248;51.522;7.020;2022-11-20T04:51:24;35.88;;;18.33;;
31638;SDS011;18248;51.522;7.020;2022-11-20T04:54:23;35.75;;;18.80;;
31638;SDS011;18248;51.522;7.020;2022-11-20T04:57:22;34.53;;;18.00;;
31638;SDS011;18248;51.522;7.020;2022-11-20T05:00:20;35.55;;;18.45;;
31638;SDS011;18248;51.522;7.020;2022-11-20T05:03:19;40.13;;;19.02;;
31638;SDS011;18248;51.522;7.020;2022-11-20T05:06:18;41.08;;;20.25;;
31638;SDS011;18248;51.522;7.020;2022-11-20T05:09:18;41.15;;;20.25;;
31638;SDS011;18248;51.522;7.020;2022-11-20T05:12:16;40.40;;;19.75;;
31638;SDS011;18248;51.522;7.020;2022-11-20T05:15:15;40.47;;;20.90;;
31638;SDS011;18248;51.522;7.020;2022-11-20T05:18:13;38.00;;;18.60;;
31638;SDS011;18248;51.522;7.020;2022-11-20T05:21:12;36.25;;;18.60;;
31638;SDS011;18248;51.522;7.020;2022-11-20T05:24:11;37.80;;;18.65;;
31638;SDS011;18248;51.522;7.020;2022-11-20T05:27:10;39.20;;;20.10;;
31638;SDS011;18248;51.522;7.020;2022-11-20T05:30:08;36.75;;;18.77;;
31638;SDS011;18248;51.522;7.020;2022-11-20T05:33:07;35.92;;;19.20;;
31638;SDS011;18248;51.522;7.020;2022-11-20T05:36:06;40.35;;;19.73;;
31638;SDS011;18248;51.522;7.020;2022-11-20T05:39:05;39.25;;;19.58;;
31638;SDS011;18248;51.522;7.020;2022-11-20T05:42:04;48.28;;;20.67;;
31638;SDS011;18248;51.522;7.020;2022-11-20T05:45:21;49.42;;;22.65;;
31638;SDS011;18248;51.522;7.020;2022-11-20T05:48:20;46.50;;;22.70;;
31638;SDS011;18248;51.522;7.020;2022-11-20T05:51:19;49.55;;;21.50;;
31638;SDS011;18248;51.522;7.020;2022-11-20T05:54:17;69.00;;;28.30;;
31638;SDS011;18248;51.522;7.020;2022-11-20T05:57:16;51.65;;;23.83;;
31638;SDS011;18248;51.522;7.020;2022-11-20T06:00:14;45.50;;;22.90;;
31638;SDS011;18248;51.522;7.020;2022-11-20T06:03:14;53.22;;;22.75;;
31638;SDS011;18248;51.522;7.020;2022-11-20T06:06:12;42.97;;;21.35;;
31638;SDS011;18248;51.522;7.020;2022-11-20T06:09:12;47.15;;;21.45;;
31638;SDS011;18248;51.522;7.020;2022-11-20T06:12:10;47.95;;;22.65;;
31638;SDS011;18248;51.522;7.020;2022-11-20T06:15:09;46.47;;;22.73;;
31638;SDS011;18248;51.522;7.020;2022-11-20T06:18:08;47.00;;;21.30;;
31638;SDS011;18248;51.522;7.020;2022-11-20T06:21:16;47.00;;;20.80;;
31638;SDS011;18248;51.522;7.020;2022-11-20T06:24:16;35.95;;;19.45;;
31638;SDS011;18248;51.522;7.020;2022-11-20T06:27:15;38.88;;;20.15;;
31638;SDS011;18248;51.522;7.020;2022-11-20T06:30:14;43.30;;;20.10;;
31638;SDS011;18248;51.522;7.020;2022-11-20T06:33:13;44.45;;;21.63;;
31638;SDS011;18248;51.522;7.020;2022-11-20T06:36:12;49.10;;;23.35;;
31638;SDS011;18248;51.522;7.020;2022-11-20T06:39:12;44.38;;;22.27;;
31638;SDS011;18248;51.522;7.020;2022-11-20T06:42:11;36.40;;;18.73;;
31638;SDS011;18248;51.522;7.020;2022-11-20T06:45:09;39.95;;;20.42;;
31638;SDS011;18248;51.522;7.020;2022-11-20T06:48:09;48.20;;;24.70;;
31638;SDS011;18248;51.522;7.020;2022-11-20T06:51:08;38.47;;;20.42;;
31638;SDS011;18248;51.522;7.020;2022-11-20T06:54:06;37.72;;;18.70;;
31638;SDS011;18248;51.522;7.020;2022-11-20T06:57:05;41.22;;;20.08;;
31638;SDS011;18248;51.522;7.020;2022-11-20T07:00:04;44.65;;;20.10;;
31638;SDS011;18248;51.522;7.020;2022-11-20T07:03:03;35.47;;;19.38;;
31638;SDS011;18248;51.522;7.020;2022-11-20T07:06:03;45.67;;;23.58;;
31638;SDS011;18248;51.522;7.020;2022-11-20T07:09:03;38.55;;;19.33;;
31638;SDS011;18248;51.522;7.020;2022-11-20T07:12:04;50.55;;;25.10;;
31638;SDS011;18248;51.522;7.020;2022-11-20T07:15:03;40.03;;;21.52;;
31638;SDS011;18248;51.522;7.020;2022-11-20T07:18:02;36.03;;;18.80;;
31638;SDS011;18248;51.522;7.020;2022-11-20T07:21:01;44.20;;;22.50;;
31638;SDS011;18248;51.522;7.020;2022-11-20T07:24:01;40.67;;;19.42;;
31638;SDS011;18248;51.522;7.020;2022-11-20T07:26:59;39.75;;;20.65;;
31638;SDS011;18248;51.522;7.020;2022-11-20T07:29:58;46.25;;;24.63;;
31638;SDS011;18248;51.522;7.020;2022-11-20T07:32:56;38.53;;;19.20;;
31638;SDS011;18248;51.522;7.020;2022-11-20T07:35:55;41.28;;;21.88;;
31638;SDS011;18248;51.522;7.020;2022-11-20T07:38:56;42.78;;;21.05;;
31638;SDS011;18248;51.522;7.020;2022-11-20T07:41:55;38.85;;;21.00;;
31638;SDS011;18248;51.522;7.020;2022-11-20T07:44:53;35.88;;;18.85;;
31638;SDS011;18248;51.522;7.020;2022-11-20T07:47:52;37.50;;;20.08;;
31638;SDS011;18248;51.522;7.020;2022-11-20T07:50:56;38.90;;;21.40;;
31638;SDS011;18248;51.522;7.020;2022-11-20T07:53:58;49.65;;;24.85;;
31638;SDS011;18248;51.522;7.020;2022-11-20T07:56:56;47.10;;;23.25;;
31638;SDS011;18248;51.522;7.020;2022-11-20T07:59:55;41.65;;;22.27;;
31638;SDS011;18248;51.522;7.020;2022-11-20T08:02:54;43.70;;;23.98;;
31638;SDS011;18248;51.522;7.020;2022-11-20T08:05:52;55.72;;;23.88;;
31638;SDS011;18248;51.522;7.020;2022-11-20T08:08:51;46.97;;;23.77;;
31638;SDS011;18248;51.522;7.020;2022-11-20T08:11:49;39.50;;;22.23;;
31638;SDS011;18248;51.522;7.020;2022-11-20T08:15:06;40.17;;;21.15;;
31638;SDS011;18248;51.522;7.020;2022-11-20T08:18:09;42.88;;;22.40;;
31638;SDS011;18248;51.522;7.020;2022-11-20T08:21:09;47.75;;;22.67;;
31638;SDS011;18248;51.522;7.020;2022-11-20T08:24:08;55.08;;;29.27;;
31638;SDS011;18248;51.522;7.020;2022-11-20T08:27:07;42.65;;;21.95;;
31638;SDS011;18248;51.522;7.020;2022-11-20T08:30:05;43.13;;;22.60;;
31638;SDS011;18248;51.522;7.020;2022-11-20T08:33:07;42.20;;;23.00;;
31638;SDS011;18248;51.522;7.020;2022-11-20T08:36:07;41.80;;;23.38;;
31638;SDS011;18248;51.522;7.020;2022-11-20T08:39:05;40.72;;;21.80;;
31638;SDS011;18248;51.522;7.020;2022-11-20T08:42:08;43.00;;;23.23;;
31638;SDS011;18248;51.522;7.020;2022-11-20T08:45:07;50.43;;;25.97;;
31638;SDS011;18248;51.522;7.020;2022-11-20T08:48:06;41.58;;;21.67;;
31638;SDS011;18248;51.522;7.020;2022-11-20T08:51:05;47.72;;;23.48;;
31638;SDS011;18248;51.522;7.020;2022-11-20T08:54:04;56.33;;;29.15;;
31638;SDS011;18248;51.522;7.020;2022-11-20T08:57:04;50.50;;;27.00;;
31638;SDS011;18248;51.522;7.020;2022-11-20T09:00:05;51.88;;;27.20;;
31638;SDS011;18248;51.522;7.020;2022-11-20T09:03:05;53.35;;;28.23;;
31638;SDS011;18248;51.522;7.020;2022-11-20T09:06:04;52.67;;;25.95;;
31638;SDS011;18248;51.522;7.020;2022-11-20T09:09:04;47.10;;;25.48;;
31638;SDS011;18248;51.522;7.020;2022-11-20T09:12:04;45.30;;;23.30;;
31638;SDS011;18248;51.522;7.020;2022-11-20T09:15:03;51.13;;;26.92;;
31638;SDS011;18248;51.522;7.020;2022-11-20T09:18:02;39.63;;;23.40;;
31638;SDS011;18248;51.522;7.020;2022-11-20T09:21:06;54.65;;;27.15;;
31638;SDS011;18248;51.522;7.020;2022-11-20T09:24:09;53.28;;;28.13;;
31638;SDS011;18248;51.522;7.020;2022-11-20T09:27:09;45.17;;;25.40;;
31638;SDS011;18248;51.522;7.020;2022-11-20T09:30:08;48.13;;;26.15;;
31638;SDS011;18248;51.522;7.020;2022-11-20T09:33:07;50.50;;;28.08;;
31638;SDS011;18248;51.522;7.020;2022-11-20T09:36:05;52.13;;;27.52;;
31638;SDS011;18248;51.522;7.020;2022-11-20T09:39:05;43.67;;;25.38;;
31638;SDS011;18248;51.522;7.020;2022-11-20T09:42:09;47.92;;;26.52;;
31638;SDS011;18248;51.522;7.020;2022-11-20T09:51:33;57.17;;;30.67;;
31638;SDS011;18248;51.522;7.020;2022-11-20T09:54:39;47.15;;;26.60;;
31638;SDS011;18248;51.522;7.020;2022-11-20T09:57:39;52.78;;;26.70;;
31638;SDS011;18248;51.522;7.020;2022-11-20T10:00:42;52.55;;;28.17;;
31638;SDS011;18248;51.522;7.020;2022-11-20T10:07:17;48.10;;;25.45;;
31638;SDS011;18248;51.522;7.020;2022-11-20T10:10:31;48.33;;;27.45;;
31638;SDS011;18248;51.522;7.020;2022-11-20T10:31:12;34.60;;;19.65;;
31638;SDS011;18248;51.522;7.020;2022-11-20T10:37:59;35.75;;;20.40;;
31638;SDS011;18248;51.522;7.020;2022-11-20T10:41:01;32.45;;;19.20;;
31638;SDS011;18248;51.522;7.020;2022-11-20T10:47:40;39.47;;;21.40;;
31638;SDS011;18248;51.522;7.020;2022-11-20T10:50:40;36.70;;;18.80;;
31638;SDS011;18248;51.522;7.020;2022-11-20T10:57:32;41.85;;;23.38;;
31638;SDS011;18248;51.522;7.020;2022-11-20T11:00:46;41.42;;;22.20;;
31638;SDS011;18248;51.522;7.020;2022-11-20T11:03:44;36.28;;;20.33;;
31638;SDS011;18248;51.522;7.020;2022-11-20T11:06:43;37.15;;;21.67;;
31638;SDS011;18248;51.522;7.020;2022-11-20T11:09:47;33.55;;;19.88;;
31638;SDS011;18248;51.522;7.020;2022-11-20T11:12:47;33.45;;;20.17;;
31638;SDS011;18248;51.522;7.020;2022-11-20T11:15:46;34.30;;;20.90;;
31638;SDS011;18248;51.522;7.020;2022-11-20T11:18:45;32.92;;;20.05;;
31638;SDS011;18248;51.522;7.020;2022-11-20T11:21:47;30.35;;;19.40;;
31638;SDS011;18248;51.522;7.020;2022-11-20T11:27:51;30.30;;;17.47;;
31638;SDS011;18248;51.522;7.020;2022-11-20T11:30:54;31.23;;;17.60;;
31638;SDS011;18248;51.522;7.020;2022-11-20T11:34:03;39.58;;;21.58;;
31638;SDS011;18248;51.522;7.020;2022-11-20T11:37:11;39.67;;;22.02;;
31638;SDS011;18248;51.522;7.020;2022-11-20T11:40:15;25.98;;;16.23;;
31638;SDS011;18248;51.522;7.020;2022-11-20T11:43:20;32.85;;;18.75;;
31638;SDS011;18248;51.522;7.020;2022-11-20T11:46:43;27.10;;;16.30;;
31638;SDS011;18248;51.522;7.020;2022-11-20T11:49:48;29.02;;;16.40;;
31638;SDS011;18248;51.522;7.020;2022-11-20T11:53:05;30.48;;;17.45;;
31638;SDS011;18248;51.522;7.020;2022-11-20T11:59:12;36.17;;;20.23;;
31638;SDS011;18248;51.522;7.020;2022-11-20T12:02:29;30.73;;;17.52;;
31638;SDS011;18248;51.522;7.020;2022-11-20T12:05:36;31.38;;;17.75;;
31638;SDS011;18248;51.522;7.020;2022-11-20T12:08:46;31.05;;;18.02;;
31638;SDS011;18248;51.522;7.020;2022-11-20T12:11:47;33.10;;;18.13;;
31638;SDS011;18248;51.522;7.020;2022-11-20T12:14:52;34.33;;;17.67;;
31638;SDS011;18248;51.522;7.020;2022-11-20T12:17:53;27.80;;;16.45;;
31638;SDS011;18248;51.522;7.020;2022-11-20T12:21:02;34.22;;;18.70;;
31638;SDS011;18248;51.522;7.020;2022-11-20T12:30:29;28.15;;;15.75;;
31638;SDS011;18248;51.522;7.020;2022-11-20T12:33:41;26.02;;;15.63;;
31638;SDS011;18248;51.522;7.020;2022-11-20T12:37:08;28.73;;;16.00;;
31638;SDS011;18248;51.522;7.020;2022-11-20T12:40:31;28.02;;;16.13;;
31638;SDS011;18248;51.522;7.020;2022-11-20T12:43:48;27.80;;;15.95;;
31638;SDS011;18248;51.522;7.020;2022-11-20T12:47:28;29.73;;;17.17;;
31638;SDS011;18248;51.522;7.020;2022-11-20T12:54:19;36.13;;;17.55;;
31638;SDS011;18248;51.522;7.020;2022-11-20T12:57:44;33.00;;;17.92;;
31638;SDS011;18248;51.522;7.020;2022-11-20T13:07:52;28.85;;;16.13;;
31638;SDS011;18248;51.522;7.020;2022-11-20T13:10:54;26.52;;;15.05;;
31638;SDS011;18248;51.522;7.020;2022-11-20T13:14:07;35.47;;;19.13;;
31638;SDS011;18248;51.522;7.020;2022-11-20T13:17:20;32.10;;;18.30;;
31638;SDS011;18248;51.522;7.020;2022-11-20T13:20:34;30.55;;;17.13;;
31638;SDS011;18248;51.522;7.020;2022-11-20T13:26:37;31.10;;;17.50;;
31638;SDS011;18248;51.522;7.020;2022-11-20T13:29:37;28.85;;;17.63;;
31638;SDS011;18248;51.522;7.020;2022-11-20T13:32:47;33.47;;;17.45;;
31638;SDS011;18248;51.522;7.020;2022-11-20T13:35:54;30.80;;;16.35;;
31638;SDS011;18248;51.522;7.020;2022-11-20T13:39:04;31.38;;;17.67;;
31638;SDS011;18248;51.522;7.020;2022-11-20T13:42:18;31.40;;;17.52;;
31638;SDS011;18248;51.522;7.020;2022-11-20T13:45:26;27.45;;;15.90;;
31638;SDS011;18248;51.522;7.020;2022-11-20T13:48:29;32.90;;;16.52;;
31638;SDS011;18248;51.522;7.020;2022-11-20T13:54:45;33.13;;;16.20;;
31638;SDS011;18248;51.522;7.020;2022-11-20T14:01:19;28.83;;;17.27;;
31638;SDS011;18248;51.522;7.020;2022-11-20T14:04:28;31.27;;;16.48;;
31638;SDS011;18248;51.522;7.020;2022-11-20T14:07:35;35.55;;;19.02;;
31638;SDS011;18248;51.522;7.020;2022-11-20T14:10:40;35.45;;;18.67;;
31638;SDS011;18248;51.522;7.020;2022-11-20T14:13:38;30.05;;;17.38;;
31638;SDS011;18248;51.522;7.020;2022-11-20T14:16:37;31.50;;;18.10;;
31638;SDS011;18248;51.522;7.020;2022-11-20T14:19:35;33.10;;;18.67;;
31638;SDS011;18248;51.522;7.020;2022-11-20T14:22:36;32.85;;;18.52;;
31638;SDS011;18248;51.522;7.020;2022-11-20T14:25:35;29.58;;;17.05;;
31638;SDS011;18248;51.522;7.020;2022-11-20T14:28:34;34.35;;;19.25;;
31638;SDS011;18248;51.522;7.020;2022-11-20T14:31:32;31.42;;;18.60;;
31638;SDS011;18248;51.522;7.020;2022-11-20T14:34:32;35.50;;;21.27;;
31638;SDS011;18248;51.522;7.020;2022-11-20T14:40:36;36.05;;;19.95;;
31638;SDS011;18248;51.522;7.020;2022-11-20T14:43:36;41.50;;;22.58;;
31638;SDS011;18248;51.522;7.020;2022-11-20T14:46:35;35.42;;;20.75;;
31638;SDS011;18248;51.522;7.020;2022-11-20T14:49:34;35.67;;;19.63;;
31638;SDS011;18248;51.522;7.020;2022-11-20T14:52:34;34.78;;;19.08;;
31638;SDS011;18248;51.522;7.020;2022-11-20T14:55:33;39.17;;;21.63;;
31638;SDS011;18248;51.522;7.020;2022-11-20T14:58:33;41.28;;;20.52;;
31638;SDS011;18248;51.522;7.020;2022-11-20T15:01:32;37.22;;;20.65;;
31638;SDS011;18248;51.522;7.020;2022-11-20T15:04:31;38.83;;;19.48;;
31638;SDS011;18248;51.522;7.020;2022-11-20T15:07:50;36.45;;;20.70;;
31638;SDS011;18248;51.522;7.020;2022-11-20T15:11:16;37.13;;;21.02;;
31638;SDS011;18248;51.522;7.020;2022-11-20T15:14:17;33.80;;;18.70;;
31638;SDS011;18248;51.522;7.020;2022-11-20T15:17:15;39.40;;;20.23;;
31638;SDS011;18248;51.522;7.020;2022-11-20T15:20:14;37.05;;;20.92;;
31638;SDS011;18248;51.522;7.020;2022-11-20T15:23:16;40.55;;;21.33;;
31638;SDS011;18248;51.522;7.020;2022-11-20T15:26:23;36.45;;;20.83;;
31638;SDS011;18248;51.522;7.020;2022-11-20T15:29:25;39.08;;;21.42;;
31638;SDS011;18248;51.522;7.020;2022-11-20T15:32:24;36.95;;;21.08;;
31638;SDS011;18248;51.522;7.020;2022-11-20T15:35:22;38.45;;;22.17;;
31638;SDS011;18248;51.522;7.020;2022-11-20T15:38:21;38.90;;;21.15;;
31638;SDS011;18248;51.522;7.020;2022-11-20T15:41:19;35.83;;;21.10;;
31638;SDS011;18248;51.522;7.020;2022-11-20T15:44:18;41.28;;;21.35;;
31638;SDS011;18248;51.522;7.020;2022-11-20T15:47:16;40.63;;;22.42;;
31638;SDS011;18248;51.522;7.020;2022-11-20T15:50:16;39.75;;;21.27;;
31638;SDS011;18248;51.522;7.020;2022-11-20T15:53:16;44.33;;;24.23;;
31638;SDS011;18248;51.522;7.020;2022-11-20T15:56:15;38.20;;;21.40;;
31638;SDS011;18248;51.522;7.020;2022-11-20T15:59:14;38.03;;;21.92;;
31638;SDS011;18248;51.522;7.020;2022-11-20T16:02:13;39.35;;;21.27;;
31638;SDS011;18248;51.522;7.020;2022-11-20T16:05:13;38.55;;;21.30;;
31638;SDS011;18248;51.522;7.020;2022-11-20T16:08:13;40.03;;;21.77;;
31638;SDS011;18248;51.522;7.020;2022-11-20T16:11:12;36.40;;;20.58;;
31638;SDS011;18248;51.522;7.020;2022-11-20T16:14:12;43.53;;;23.35;;
31638;SDS011;18248;51.522;7.020;2022-11-20T16:17:30;46.85;;;24.35;;
31638;SDS011;18248;51.522;7.020;2022-11-20T16:20:40;40.28;;;22.58;;
31638;SDS011;18248;51.522;7.020;2022-11-20T16:23:39;38.58;;;21.52;;
31638;SDS011;18248;51.522;7.020;2022-11-20T16:26:39;50.80;;;25.98;;
31638;SDS011;18248;51.522;7.020;2022-11-20T16:29:38;46.03;;;22.65;;
31638;SDS011;18248;51.522;7.020;2022-11-20T16:32:36;40.13;;;21.35;;
31638;SDS011;18248;51.522;7.020;2022-11-20T16:35:36;49.45;;;25.17;;
31638;SDS011;18248;51.522;7.020;2022-11-20T16:38:35;50.78;;;26.58;;
31638;SDS011;18248;51.522;7.020;2022-11-20T16:41:34;49.15;;;25.52;;
31638;SDS011;18248;51.522;7.020;2022-11-20T16:44:32;44.83;;;22.35;;
31638;SDS011;18248;51.522;7.020;2022-11-20T16:47:34;50.58;;;24.40;;
31638;SDS011;18248;51.522;7.020;2022-11-20T16:50:34;51.37;;;26.50;;
31638;SDS011;18248;51.522;7.020;2022-11-20T16:53:33;52.03;;;27.25;;
31638;SDS011;18248;51.522;7.020;2022-11-20T16:56:31;51.35;;;25.77;;
31638;SDS011;18248;51.522;7.020;2022-11-20T16:59:30;50.60;;;25.90;;
31638;SDS011;18248;51.522;7.020;2022-11-20T17:02:28;46.72;;;24.00;;
31638;SDS011;18248;51.522;7.020;2022-11-20T17:05:28;49.13;;;25.73;;
31638;SDS011;18248;51.522;7.020;2022-11-20T17:08:28;60.10;;;29.55;;
31638;SDS011;18248;51.522;7.020;2022-11-20T17:11:27;52.00;;;26.00;;
31638;SDS011;18248;51.522;7.020;2022-11-20T17:14:28;50.17;;;24.95;;
31638;SDS011;18248;51.522;7.020;2022-11-20T17:17:28;51.45;;;25.20;;
31638;SDS011;18248;51.522;7.020;2022-11-20T17:20:28;64.53;;;29.98;;
31638;SDS011;18248;51.522;7.020;2022-11-20T17:23:29;57.40;;;27.38;;
31638;SDS011;18248;51.522;7.020;2022-11-20T17:26:29;61.38;;;29.73;;
31638;SDS011;18248;51.522;7.020;2022-11-20T17:29:27;55.92;;;27.10;;
31638;SDS011;18248;51.522;7.020;2022-11-20T17:32:26;66.35;;;30.48;;
31638;SDS011;18248;51.522;7.020;2022-11-20T17:35:25;58.53;;;30.35;;
31638;SDS011;18248;51.522;7.020;2022-11-20T17:38:24;54.10;;;27.40;;
31638;SDS011;18248;51.522;7.020;2022-11-20T17:41:23;61.70;;;29.67;;
31638;SDS011;18248;51.522;7.020;2022-11-20T17:44:23;56.13;;;28.20;;
31638;SDS011;18248;51.522;7.020;2022-11-20T17:47:21;70.68;;;32.45;;
31638;SDS011;18248;51.522;7.020;2022-11-20T17:50:20;58.15;;;28.08;;
31638;SDS011;18248;51.522;7.020;2022-11-20T17:53:19;56.15;;;29.20;;
31638;SDS011;18248;51.522;7.020;2022-11-20T17:56:18;59.80;;;28.08;;
31638;SDS011;18248;51.522;7.020;2022-11-20T17:59:36;69.10;;;34.08;;
31638;SDS011;18248;51.522;7.020;2022-11-20T18:02:35;68.93;;;33.10;;
31638;SDS011;18248;51.522;7.020;2022-11-20T18:05:34;55.85;;;28.67;;
31638;SDS011;18248;51.522;7.020;2022-11-20T18:08:32;54.58;;;27.92;;
31638;SDS011;18248;51.522;7.020;2022-11-20T18:11:32;67.60;;;33.60;;
31638;SDS011;18248;51.522;7.020;2022-11-20T18:14:32;59.47;;;29.15;;
31638;SDS011;18248;51.522;7.020;2022-11-20T18:17:33;59.30;;;28.42;;
31638;SDS011;18248;51.522;7.020;2022-11-20T18:20:32;63.53;;;29.48;;
31638;SDS011;18248;51.522;7.020;2022-11-20T18:23:32;58.80;;;28.88;;
31638;SDS011;18248;51.522;7.020;2022-11-20T18:26:30;61.15;;;29.73;;
31638;SDS011;18248;51.522;7.020;2022-11-20T18:29:29;53.92;;;26.33;;
31638;SDS011;18248;51.522;7.020;2022-11-20T18:32:28;56.38;;;27.45;;
31638;SDS011;18248;51.522;7.020;2022-11-20T18:35:26;62.10;;;28.88;;
31638;SDS011;18248;51.522;7.020;2022-11-20T18:38:25;53.08;;;27.08;;
31638;SDS011;18248;51.522;7.020;2022-11-20T18:41:25;49.55;;;26.55;;
31638;SDS011;18248;51.522;7.020;2022-11-20T18:44:44;51.90;;;26.25;;
31638;SDS011;18248;51.522;7.020;2022-11-20T18:47:48;52.70;;;26.35;;
31638;SDS011;18248;51.522;7.020;2022-11-20T18:50:47;50.67;;;24.17;;
31638;SDS011;18248;51.522;7.020;2022-11-20T18:53:46;48.22;;;25.02;;
31638;SDS011;18248;51.522;7.020;2022-11-20T18:56:45;46.15;;;24.15;;
31638;SDS011;18248;51.522;7.020;2022-11-20T18:59:44;46.60;;;24.10;;
31638;SDS011;18248;51.522;7.020;2022-11-20T19:02:43;46.85;;;23.80;;